Terminal Aerodrome Forecast
Issued by NWS Boston, MA

Home | Current Version | Previous Version | Text Only | Print | Product List | Glossary On
Versions: 1 2 3 4 5 6 7 8 9 10 11 12 13 14 15 16 17 18 19 20 21 22 23 24
000
FTUS41 KBOX 181740
TAFBOS
TAF
KBOS 181740Z 1818/1924 07009KT 2SM -RA BR SCT008 OVC012
     FM182200 06008KT 5SM -DZ BR VCSH OVC008
     FM190600 03004KT 2SM BR OVC008
     FM190800 31004KT 1 1/2SM -DZ OVC008
     FM191100 27004KT 3SM BR OVC015
     FM191300 27005KT 5SM BR OVC025
     FM191500 28005KT P6SM BKN040
     FM192100 32005KT P6SM SCT150=

USA.gov is the U.S. government's official web portal to all federal, state and local government web resources and services.